Time;durP1;ratioP1;P1;durP2;ratioP2;P2;SDS_P1;SDS_P2;PMS_P1;PMS_P2;Temp;Humidity;BMP_temperature;BMP_pressure;BME280_temperature;BME280_humidity;BME280_pressure;Samples;Min_cycle;Max_cycle;Signal;HPM_P1;HPM_P2
2023/06/22 00:02:13;;;;;;;16.10;7.57;;;21.60;99.90;;;;;;5048794;28;20116;-69
2023/06/22 00:04:39;;;;;;;18.88;7.18;;;21.50;99.90;;;;;;5042994;28;20066;-70
2023/06/22 00:07:05;;;;;;;24.30;8.20;;;21.40;99.90;;;;;;5064076;28;20060;-69
2023/06/22 00:09:32;;;;;;;21.77;8.15;;;21.50;99.90;;;;;;5061577;28;20024;-71
2023/06/22 00:11:57;;;;;;;12.27;6.32;;;21.30;99.90;;;;;;5061588;28;20093;-70
2023/06/22 00:14:23;;;;;;;16.10;7.27;;;21.30;99.90;;;;;;5064862;28;20104;-70
2023/06/22 00:16:48;;;;;;;14.30;7.07;;;21.30;99.90;;;;;;5061799;28;20063;-69
2023/06/22 00:19:15;;;;;;;18.23;7.93;;;21.20;99.90;;;;;;5057579;28;20446;-70
2023/06/22 00:21:42;;;;;;;17.23;8.02;;;21.00;99.90;;;;;;5066711;28;20484;-71
2023/06/22 00:24:08;;;;;;;19.27;7.55;;;21.10;99.90;;;;;;5049049;28;20078;-69
2023/06/22 00:26:34;;;;;;;19.73;7.25;;;21.20;99.90;;;;;;5063394;28;20441;-71
2023/06/22 00:28:59;;;;;;;14.37;8.23;;;21.00;99.90;;;;;;5060688;28;20013;-71
2023/06/22 00:31:25;;;;;;;17.80;7.97;;;20.90;99.90;;;;;;5058487;28;20060;-70
2023/06/22 00:33:50;;;;;;;19.70;6.83;;;21.00;99.90;;;;;;5063455;28;20563;-71
2023/06/22 00:36:17;;;;;;;18.87;7.30;;;20.80;99.90;;;;;;5048409;28;20290;-70
2023/06/22 00:38:43;;;;;;;18.85;7.75;;;20.90;99.90;;;;;;5057929;28;20032;-69
2023/06/22 00:41:09;;;;;;;14.45;7.50;;;20.80;99.90;;;;;;5041873;28;20508;-69
2023/06/22 00:43:35;;;;;;;21.52;8.30;;;20.70;99.90;;;;;;5061452;28;20040;-68
2023/06/22 00:46:00;;;;;;;20.52;7.60;;;20.50;99.90;;;;;;5061210;28;20050;-70
2023/06/22 00:48:26;;;;;;;17.23;8.17;;;20.30;99.90;;;;;;5054426;28;20051;-68
2023/06/22 00:50:53;;;;;;;20.55;8.20;;;20.50;99.90;;;;;;5053381;28;20295;-71
2023/06/22 00:53:19;;;;;;;19.30;8.40;;;20.40;99.90;;;;;;5061776;28;20024;-70
2023/06/22 00:55:46;;;;;;;21.52;8.25;;;20.20;99.90;;;;;;5055719;28;20029;-68
2023/06/22 00:58:13;;;;;;;28.88;8.75;;;20.20;99.90;;;;;;5045093;28;20025;-69
2023/06/22 01:00:40;;;;;;;15.65;7.60;;;20.10;99.90;;;;;;5058706;28;20615;-71
2023/06/22 01:03:09;;;;;;;22.33;8.23;;;20.20;99.90;;;;;;5062656;28;20021;-69
2023/06/22 01:05:36;;;;;;;20.80;8.20;;;20.20;99.90;;;;;;5059398;28;20029;-69
2023/06/22 01:08:07;;;;;;;23.70;8.35;;;20.00;99.90;;;;;;5059048;28;20025;-68
2023/06/22 01:10:41;;;;;;;22.42;7.40;;;19.90;99.90;;;;;;5061535;28;20032;-69
2023/06/22 01:13:31;;;;;;;23.20;7.95;;;19.70;99.90;;;;;;5057152;28;20524;-69
2023/06/22 01:16:10;;;;;;;11.32;7.03;;;19.70;99.90;;;;;;5059065;28;20053;-70
2023/06/22 01:18:39;;;;;;;18.33;7.38;;;19.80;99.90;;;;;;5064737;28;20122;-70
2023/06/22 01:21:09;;;;;;;21.20;7.70;;;19.90;99.90;;;;;;5059034;28;20485;-68
2023/06/22 01:23:59;;;;;;;25.65;7.78;;;19.70;99.90;;;;;;5062485;28;20398;-69
2023/06/22 01:26:30;;;;;;;22.95;7.13;;;19.70;99.90;;;;;;5064871;28;20025;-68
2023/06/22 01:28:58;;;;;;;14.13;7.30;;;19.70;99.90;;;;;;5065416;28;20484;-68
2023/06/22 01:31:26;;;;;;;19.27;7.38;;;19.80;99.90;;;;;;5058155;28;20028;-68
2023/06/22 01:33:59;;;;;;;25.73;8.48;;;19.90;99.90;;;;;;5067603;28;20036;-68
2023/06/22 01:36:26;;;;;;;26.77;7.90;;;19.70;99.90;;;;;;5070072;28;20072;-69
2023/06/22 01:38:53;;;;;;;20.95;7.93;;;19.90;99.90;;;;;;5058856;28;20033;-68
2023/06/22 01:41:24;;;;;;;27.63;9.60;;;20.10;99.90;;;;;;5067457;28;20029;-68
2023/06/22 01:43:51;;;;;;;25.67;11.02;;;19.70;99.90;;;;;;5068895;28;20032;-69
2023/06/22 01:46:19;;;;;;;20.77;8.05;;;19.90;99.90;;;;;;5044851;28;20052;-69
2023/06/22 01:48:46;;;;;;;24.60;8.43;;;19.70;99.90;;;;;;5065826;28;20028;-68
2023/06/22 01:51:11;;;;;;;18.77;7.28;;;19.50;99.90;;;;;;5067422;28;20024;-68
2023/06/22 01:53:37;;;;;;;20.15;9.15;;;19.50;99.90;;;;;;5068906;28;20032;-70
2023/06/22 01:56:03;;;;;;;20.87;8.50;;;19.50;99.90;;;;;;5069462;28;20024;-68
2023/06/22 01:58:31;;;;;;;27.83;8.07;;;19.50;99.90;;;;;;5064079;28;20420;-68
2023/06/22 02:01:10;;;;;;;17.38;8.70;;;19.50;99.90;;;;;;5062097;28;20481;-68
2023/06/22 02:03:42;;;;;;;20.15;8.23;;;19.60;99.90;;;;;;5063913;28;20078;-66
2023/06/22 02:06:17;;;;;;;25.50;9.27;;;19.70;99.90;;;;;;5063223;28;20020;-66
2023/06/22 02:08:55;;;;;;;23.67;7.93;;;19.70;99.90;;;;;;5050450;28;20037;-66
2023/06/22 02:11:21;;;;;;;24.23;7.43;;;19.80;99.90;;;;;;5061378;28;20548;-65
2023/06/22 02:13:48;;;;;;;20.33;8.50;;;19.80;99.90;;;;;;5057943;28;20045;-65
2023/06/22 02:16:16;;;;;;;30.05;8.38;;;19.60;99.90;;;;;;5063931;28;20537;-70
2023/06/22 02:18:52;;;;;;;15.18;7.22;;;19.50;99.90;;;;;;5062681;28;20161;-72
2023/06/22 02:21:19;;;;;;;23.77;7.82;;;19.40;99.90;;;;;;5062651;28;20082;-70
2023/06/22 02:23:45;;;;;;;27.65;7.38;;;19.40;99.90;;;;;;5062966;28;20102;-69
2023/06/22 02:26:10;;;;;;;19.25;9.63;;;19.50;99.90;;;;;;5061485;28;20020;-67
2023/06/22 02:28:36;;;;;;;26.98;7.93;;;19.40;99.90;;;;;;5060548;28;20059;-66
2023/06/22 02:31:02;;;;;;;17.10;7.50;;;19.30;99.90;;;;;;5056797;28;20024;-70
2023/06/22 02:33:27;;;;;;;22.37;8.00;;;19.20;99.90;;;;;;5058614;28;20040;-67
2023/06/22 02:35:53;;;;;;;22.40;8.87;;;19.20;99.90;;;;;;5059402;28;20658;-69
2023/06/22 02:38:19;;;;;;;18.50;9.03;;;19.20;99.90;;;;;;5066159;28;20625;-71
2023/06/22 02:40:45;;;;;;;18.30;8.00;;;19.40;99.90;;;;;;5062115;28;20036;-73
2023/06/22 02:43:11;;;;;;;22.00;8.40;;;19.30;99.90;;;;;;5046941;28;20036;-72
2023/06/22 02:45:36;;;;;;;27.20;9.33;;;19.10;99.90;;;;;;5059990;28;20058;-73
2023/06/22 02:48:02;;;;;;;22.87;10.27;;;19.20;99.90;;;;;;5060501;28;20029;-74
2023/06/22 02:50:28;;;;;;;17.88;7.93;;;19.40;99.90;;;;;;5059458;28;20029;-73
2023/06/22 02:52:54;;;;;;;21.35;8.32;;;19.60;99.90;;;;;;5058088;28;20194;-66
2023/06/22 02:55:20;;;;;;;25.17;8.02;;;19.70;99.90;;;;;;5064187;28;20021;-69
2023/06/22 02:57:47;;;;;;;19.90;8.00;;;19.60;99.90;;;;;;5058117;28;20639;-65
2023/06/22 03:00:17;;;;;;;22.52;8.00;;;19.60;99.90;;;;;;5061852;28;20055;-70
2023/06/22 03:02:47;;;;;;;18.77;8.23;;;19.60;99.90;;;;;;5061103;28;20761;-68
2023/06/22 03:05:17;;;;;;;17.20;7.05;;;19.60;99.90;;;;;;5061306;28;20039;-66
2023/06/22 03:07:44;;;;;;;18.75;7.25;;;19.50;99.90;;;;;;5058895;28;20024;-68
2023/06/22 03:10:11;;;;;;;17.65;7.60;;;19.60;99.90;;;;;;5062203;28;20081;-67
2023/06/22 03:12:41;;;;;;;18.85;7.70;;;19.40;99.90;;;;;;5056205;28;20120;-71
2023/06/22 03:15:09;;;;;;;29.38;9.50;;;19.50;99.90;;;;;;5061957;28;20039;-72
2023/06/22 03:17:35;;;;;;;23.05;8.07;;;19.40;99.90;;;;;;5058035;28;20086;-67
2023/06/22 03:20:08;;;;;;;21.17;7.95;;;19.30;99.90;;;;;;5055967;28;20040;-69
2023/06/22 03:22:35;;;;;;;16.98;7.65;;;19.20;99.90;;;;;;5061994;28;20059;-70
2023/06/22 03:25:01;;;;;;;20.92;8.13;;;19.00;99.90;;;;;;5056222;28;20040;-67
2023/06/22 03:27:27;;;;;;;25.97;9.07;;;18.90;99.90;;;;;;5059697;28;20052;-69
2023/06/22 03:29:52;;;;;;;24.40;8.18;;;19.00;99.90;;;;;;5059615;28;20298;-71
2023/06/22 03:32:18;;;;;;;26.43;10.30;;;18.90;99.90;;;;;;5061586;28;20128;-72
2023/06/22 03:34:46;;;;;;;20.40;7.67;;;19.00;99.90;;;;;;5061818;28;20037;-70
2023/06/22 03:37:14;;;;;;;24.33;7.57;;;19.00;99.90;;;;;;5054100;28;20028;-73
2023/06/22 03:39:39;;;;;;;27.95;8.80;;;19.00;99.90;;;;;;5060807;28;20035;-69
2023/06/22 03:42:05;;;;;;;27.60;7.97;;;19.10;99.90;;;;;;5059649;28;20037;-72
2023/06/22 03:44:31;;;;;;;24.83;8.10;;;19.10;99.90;;;;;;5042155;28;20408;-70
2023/06/22 03:46:57;;;;;;;24.93;7.80;;;19.20;99.90;;;;;;5059644;28;20037;-73
2023/06/22 03:49:22;;;;;;;26.20;8.53;;;19.20;99.90;;;;;;5060202;28;20033;-69
2023/06/22 03:51:48;;;;;;;29.93;7.60;;;19.20;99.90;;;;;;5044389;28;20024;-71
2023/06/22 03:54:13;;;;;;;29.17;9.20;;;19.30;99.90;;;;;;5059500;28;20534;-70
2023/06/22 03:56:39;;;;;;;25.67;8.87;;;19.30;99.90;;;;;;5056534;28;20029;-69
2023/06/22 03:59:04;;;;;;;25.20;8.43;;;19.40;99.90;;;;;;5061252;28;20142;-70
2023/06/22 04:01:30;;;;;;;32.27;8.00;;;19.40;99.90;;;;;;5057111;28;20103;-70
2023/06/22 04:03:56;;;;;;;37.60;8.47;;;19.40;99.90;;;;;;5059441;28;20041;-71
2023/06/22 04:06:22;;;;;;;30.23;8.20;;;19.40;99.90;;;;;;5059498;28;20032;-69
2023/06/22 04:08:50;;;;;;;;;;;19.50;99.90;;;;;;5058315;28;20116;-69
2023/06/22 04:11:18;;;;;;;26.45;8.85;;;19.50;99.90;;;;;;5055824;28;19916;-73
2023/06/22 04:13:44;;;;;;;19.75;8.35;;;19.60;99.90;;;;;;5060592;28;20344;-71
2023/06/22 04:16:10;;;;;;;25.47;8.13;;;19.60;99.90;;;;;;5059905;28;20036;-72
2023/06/22 04:18:35;;;;;;;16.77;8.33;;;19.80;99.90;;;;;;5061812;28;20312;-72
2023/06/22 04:21:02;;;;;;;18.03;8.03;;;19.90;99.90;;;;;;5057076;28;20079;-74
2023/06/22 04:23:27;;;;;;;34.35;8.30;;;20.00;99.90;;;;;;5065452;28;20037;-72
2023/06/22 04:25:53;;;;;;;28.27;8.10;;;19.90;99.90;;;;;;5060260;28;20404;-68
2023/06/22 04:28:19;;;;;;;27.57;9.83;;;19.80;99.90;;;;;;5055319;28;20075;-66
2023/06/22 04:30:47;;;;;;;27.23;9.67;;;19.90;99.90;;;;;;5060654;28;20043;-71
2023/06/22 04:33:14;;;;;;;26.33;7.78;;;20.00;99.90;;;;;;5059506;28;20105;-69
2023/06/22 04:35:42;;;;;;;21.98;7.47;;;20.10;99.90;;;;;;5059713;28;20484;-68
2023/06/22 04:38:08;;;;;;;25.60;7.97;;;20.20;99.90;;;;;;5060723;28;20041;-71
2023/06/22 04:40:34;;;;;;;24.88;9.55;;;20.20;99.90;;;;;;5059840;28;20090;-71
2023/06/22 04:43:02;;;;;;;21.23;7.80;;;20.00;99.90;;;;;;5054612;28;20504;-70
2023/06/22 04:45:31;;;;;;;19.73;8.23;;;20.00;99.90;;;;;;5055258;28;20276;-68
2023/06/22 04:47:57;;;;;;;23.10;8.70;;;20.10;99.90;;;;;;5056094;28;20138;-72
2023/06/22 04:50:23;;;;;;;23.73;8.57;;;20.30;99.90;;;;;;5062315;28;20032;-69
2023/06/22 04:52:49;;;;;;;24.13;7.80;;;20.30;99.90;;;;;;5063260;28;20071;-71
2023/06/22 04:55:19;;;;;;;26.10;8.18;;;20.30;99.90;;;;;;5065675;28;20490;-74
2023/06/22 04:57:48;;;;;;;25.15;8.10;;;20.40;99.90;;;;;;5064893;28;20048;-72
2023/06/22 05:00:22;;;;;;;20.95;7.70;;;20.40;99.90;;;;;;5066279;28;20772;-74
2023/06/22 05:02:49;;;;;;;22.50;8.93;;;20.40;99.90;;;;;;5069458;28;20035;-74
2023/06/22 05:05:15;;;;;;;28.50;9.02;;;20.40;99.90;;;;;;5059756;28;20121;-71
2023/06/22 05:07:47;;;;;;;24.42;9.13;;;20.40;99.90;;;;;;5065677;28;20029;-68
2023/06/22 05:10:14;;;;;;;27.70;9.85;;;20.30;99.90;;;;;;5044194;28;20060;-72
2023/06/22 05:12:41;;;;;;;25.63;9.35;;;20.30;99.90;;;;;;5061300;28;20021;-69
2023/06/22 05:15:10;;;;;;;25.20;8.85;;;20.10;99.90;;;;;;5062453;28;20401;-68
2023/06/22 05:17:36;;;;;;;26.23;8.68;;;20.10;99.90;;;;;;5059255;28;20028;-71
2023/06/22 05:20:06;;;;;;;31.08;9.05;;;20.00;99.90;;;;;;5064741;28;20122;-70
2023/06/22 05:22:31;;;;;;;18.77;8.32;;;20.00;99.90;;;;;;5060818;28;20028;-73
2023/06/22 05:24:57;;;;;;;23.20;8.88;;;19.90;99.90;;;;;;5061230;28;20056;-68
2023/06/22 05:27:23;;;;;;;20.20;9.07;;;20.00;99.90;;;;;;5051995;28;20039;-67
2023/06/22 05:29:48;;;;;;;28.60;9.20;;;20.10;99.90;;;;;;5056409;28;20152;-69
2023/06/22 05:32:14;;;;;;;23.77;9.70;;;20.20;99.90;;;;;;5044439;28;20029;-69
2023/06/22 05:34:39;;;;;;;21.27;7.97;;;20.40;99.90;;;;;;5062615;28;20039;-71
2023/06/22 05:37:06;;;;;;;20.73;9.20;;;20.50;99.90;;;;;;5060299;28;20024;-68
2023/06/22 05:39:31;;;;;;;26.30;8.85;;;20.40;99.90;;;;;;5053993;28;20052;-67
2023/06/22 05:41:57;;;;;;;24.55;8.73;;;20.50;99.90;;;;;;5062628;28;20029;-69
2023/06/22 05:44:23;;;;;;;31.13;9.63;;;20.50;99.90;;;;;;5063479;28;20428;-68
2023/06/22 05:46:49;;;;;;;25.35;8.88;;;20.40;99.90;;;;;;5062383;28;20048;-69
2023/06/22 05:49:16;;;;;;;23.50;10.63;;;20.30;99.90;;;;;;5064339;28;20389;-68
2023/06/22 05:51:41;;;;;;;;;;;20.30;99.90;;;;;;5044742;28;20021;-68
2023/06/22 05:54:10;;;;;;;37.33;9.68;;;20.40;99.90;;;;;;5063331;28;19923;-69
2023/06/22 05:56:36;;;;;;;35.85;9.20;;;20.30;99.90;;;;;;5064943;28;20500;-67
2023/06/22 05:59:01;;;;;;;33.55;10.30;;;20.40;99.90;;;;;;5062593;28;20120;-71
2023/06/22 06:01:27;;;;;;;31.13;9.13;;;20.50;99.90;;;;;;5063741;28;20509;-68
2023/06/22 06:03:52;;;;;;;27.77;10.13;;;20.70;99.90;;;;;;5062354;28;20048;-69
2023/06/22 06:06:28;;;;;;;23.50;9.80;;;20.70;99.90;;;;;;5062700;28;20020;-71
2023/06/22 06:08:54;;;;;;;23.90;9.63;;;20.80;99.90;;;;;;5064196;28;20796;-70
2023/06/22 06:11:19;;;;;;;27.92;8.57;;;20.90;99.90;;;;;;5047965;28;20037;-70
2023/06/22 06:13:45;;;;;;;24.73;8.43;;;20.80;99.90;;;;;;5051166;28;20077;-70
2023/06/22 06:16:11;;;;;;;27.63;9.60;;;20.90;99.90;;;;;;5060170;28;20036;-69
2023/06/22 06:18:37;;;;;;;28.27;9.23;;;21.00;99.90;;;;;;5053635;28;20045;-70
2023/06/22 06:21:03;;;;;;;29.90;11.48;;;21.10;99.90;;;;;;5059204;28;20024;-70
2023/06/22 06:23:28;;;;;;;32.83;9.98;;;21.00;99.90;;;;;;5061622;28;20047;-67
2023/06/22 06:25:54;;;;;;;51.53;11.73;;;21.20;99.90;;;;;;5059754;28;20025;-67
2023/06/22 06:28:20;;;;;;;28.15;10.75;;;21.10;99.90;;;;;;5062890;28;20038;-69
2023/06/22 06:30:47;;;;;;;26.70;10.40;;;21.00;99.90;;;;;;5059784;28;20064;-67
2023/06/22 06:33:12;;;;;;;30.40;11.00;;;20.90;99.90;;;;;;5061906;28;20031;-68
2023/06/22 06:35:38;;;;;;;26.63;11.45;;;20.80;99.90;;;;;;5062128;28;20032;-68
2023/06/22 06:38:04;;;;;;;29.33;11.10;;;20.80;99.90;;;;;;5060829;28;20067;-67
2023/06/22 06:40:30;;;;;;;32.17;13.02;;;20.70;99.90;;;;;;5061025;28;20025;-66
2023/06/22 06:42:55;;;;;;;38.08;12.55;;;20.80;99.90;;;;;;5059774;28;20044;-67
2023/06/22 06:45:23;;;;;;;22.33;11.83;;;21.00;99.90;;;;;;5064993;28;20029;-66
2023/06/22 06:47:49;;;;;;;31.00;12.40;;;21.30;99.90;;;;;;5055780;28;20047;-66
2023/06/22 06:50:15;;;;;;;60.47;20.20;;;21.30;99.90;;;;;;5059044;28;20052;-69
2023/06/22 06:52:41;;;;;;;59.10;19.27;;;21.30;99.90;;;;;;5058711;28;20443;-68
2023/06/22 06:55:11;;;;;;;29.02;12.77;;;21.50;99.90;;;;;;5059871;28;20366;-68
2023/06/22 06:57:40;;;;;;;50.70;16.38;;;21.70;99.90;;;;;;5056604;28;20411;-67
2023/06/22 07:00:11;;;;;;;28.40;12.65;;;22.00;99.90;;;;;;5057779;28;20135;-68
2023/06/22 07:02:42;;;;;;;37.33;13.75;;;21.80;99.90;;;;;;5043796;28;20039;-66
2023/06/22 07:05:08;;;;;;;30.40;11.80;;;21.50;99.90;;;;;;5062568;28;20492;-66
2023/06/22 07:07:33;;;;;;;86.47;19.33;;;22.00;99.90;;;;;;5066772;28;20013;-66
2023/06/22 07:09:59;;;;;;;106.67;24.47;;;22.10;99.90;;;;;;5060515;28;20106;-68
2023/06/22 07:12:25;;;;;;;149.43;36.13;;;22.70;99.90;;;;;;5062266;28;20029;-70
2023/06/22 07:14:52;;;;;;;263.00;57.47;;;23.40;99.90;;;;;;5063950;28;20128;-67
2023/06/22 07:17:19;;;;;;;143.15;37.45;;;23.90;99.90;;;;;;5060805;28;20041;-66
2023/06/22 07:19:45;;;;;;;146.23;37.53;;;23.60;99.90;;;;;;5057599;28;20048;-66
2023/06/22 07:22:10;;;;;;;125.38;32.92;;;23.80;99.90;;;;;;5063373;28;20174;-67
2023/06/22 07:24:37;;;;;;;100.13;28.20;;;23.90;99.90;;;;;;5038606;28;20047;-66
2023/06/22 07:27:03;;;;;;;61.40;19.13;;;23.70;99.90;;;;;;5060140;28;20048;-67
2023/06/22 07:29:29;;;;;;;47.30;13.80;;;24.00;99.90;;;;;;5060021;28;20403;-68
2023/06/22 07:31:56;;;;;;;28.27;11.38;;;23.80;99.90;;;;;;5055716;28;20029;-67
2023/06/22 07:34:22;;;;;;;35.50;13.10;;;23.80;99.90;;;;;;5063286;28;20488;-66
2023/06/22 07:36:47;;;;;;;43.03;12.55;;;23.60;99.90;;;;;;5060416;28;20424;-68
2023/06/22 07:39:14;;;;;;;37.07;16.10;;;23.50;99.90;;;;;;5061699;28;20043;-65
2023/06/22 07:41:40;;;;;;;;;;;23.50;99.90;;;;;;5062047;28;20291;-71
2023/06/22 07:44:07;;;;;;;53.28;17.35;;;23.60;99.90;;;;;;5061770;28;19916;-65
2023/06/22 07:46:33;;;;;;;26.60;11.93;;;24.10;99.90;;;;;;5057827;28;20511;-70
2023/06/22 07:48:59;;;;;;;47.25;18.95;;;24.40;99.90;;;;;;5041265;28;20115;-68
2023/06/22 07:51:25;;;;;;;40.72;16.80;;;24.50;99.90;;;;;;5065094;28;20032;-70
2023/06/22 07:53:50;;;;;;;53.20;16.70;;;24.90;99.90;;;;;;5058983;28;20492;-67
2023/06/22 07:56:20;;;;;;;74.55;16.02;;;24.70;99.90;;;;;;5057504;28;20063;-68
2023/06/22 07:58:46;;;;;;;63.90;16.00;;;24.60;99.90;;;;;;5059606;28;20033;-68
2023/06/22 08:01:14;;;;;;;37.30;12.82;;;24.40;99.90;;;;;;5059799;28;20572;-67
2023/06/22 08:03:39;;;;;;;48.70;14.88;;;24.20;99.90;;;;;;5061739;28;20024;-66
2023/06/22 08:06:05;;;;;;;44.85;13.50;;;24.00;99.90;;;;;;5059058;28;20024;-66
2023/06/22 08:08:31;;;;;;;36.33;11.75;;;24.00;99.90;;;;;;5045229;28;20089;-67
2023/06/22 08:10:57;;;;;;;39.35;12.85;;;24.20;99.90;;;;;;5064713;28;20037;-67
2023/06/22 08:13:23;;;;;;;35.08;12.93;;;24.50;99.90;;;;;;5058942;28;20888;-66
2023/06/22 08:15:49;;;;;;;32.95;13.82;;;24.80;99.90;;;;;;5057411;28;20033;-70
2023/06/22 08:18:14;;;;;;;35.25;13.65;;;25.30;99.90;;;;;;5059190;28;20024;-70
2023/06/22 08:20:40;;;;;;;30.40;12.25;;;25.60;99.90;;;;;;5057189;28;20083;-70
2023/06/22 08:23:06;;;;;;;32.80;12.10;;;26.10;99.90;;;;;;5057278;28;20036;-66
2023/06/22 08:25:35;;;;;;;24.10;10.45;;;26.30;99.90;;;;;;5063046;28;20282;-69
2023/06/22 08:28:02;;;;;;;37.22;12.75;;;27.00;99.90;;;;;;5060311;28;20109;-67
2023/06/22 08:30:28;;;;;;;28.23;11.10;;;26.70;99.90;;;;;;5060378;28;20055;-67
2023/06/22 08:32:55;;;;;;;24.73;10.40;;;26.80;99.90;;;;;;5059981;28;20064;-69
2023/06/22 08:35:22;;;;;;;23.73;10.75;;;26.90;99.90;;;;;;5060150;28;20084;-67
2023/06/22 08:37:52;;;;;;;30.60;8.80;;;26.90;99.90;;;;;;5058954;28;20045;-70
2023/06/22 08:40:19;;;;;;;28.15;9.10;;;26.00;99.90;;;;;;5055082;28;20041;-69
2023/06/22 08:42:46;;;;;;;19.92;9.18;;;26.20;99.90;;;;;;5058895;28;20045;-67
2023/06/22 08:45:12;;;;;;;21.15;8.27;;;29.30;96.90;;;;;;5058484;28;20443;-68
2023/06/22 08:47:38;;;;;;;30.30;9.05;;;29.40;94.90;;;;;;5062881;28;20451;-67
2023/06/22 08:50:05;;;;;;;31.75;11.93;;;28.60;95.20;;;;;;5042896;28;20404;-67
2023/06/22 08:52:31;;;;;;;31.38;11.13;;;28.40;96.70;;;;;;5060869;28;20103;-66
2023/06/22 08:54:58;;;;;;;19.00;7.28;;;27.90;96.50;;;;;;5056310;28;20115;-66
2023/06/22 08:57:24;;;;;;;25.88;9.10;;;27.40;99.60;;;;;;5060682;28;20055;-66
2023/06/22 08:59:52;;;;;;;21.52;8.52;;;27.20;99.90;;;;;;5060981;28;20044;-66
2023/06/22 09:02:17;;;;;;;25.42;8.27;;;27.50;99.80;;;;;;5059143;28;20041;-66
2023/06/22 09:04:43;;;;;;;20.63;7.28;;;31.20;94.10;;;;;;5060955;28;20032;-69
2023/06/22 09:07:09;;;;;;;29.25;7.25;;;32.40;80.30;;;;;;5062368;28;20047;-69
2023/06/22 09:09:34;;;;;;;22.17;6.20;;;31.30;79.90;;;;;;5057809;28;20515;-68
2023/06/22 09:12:00;;;;;;;23.35;7.18;;;29.50;90.70;;;;;;5059652;28;20510;-69
2023/06/22 09:14:26;;;;;;;20.05;7.55;;;28.20;90.60;;;;;;5060883;28;20028;-68
2023/06/22 09:16:51;;;;;;;25.23;6.80;;;27.60;91.80;;;;;;5055575;28;20032;-68
2023/06/22 09:19:17;;;;;;;18.63;7.22;;;27.00;92.60;;;;;;5059975;28;20091;-70
2023/06/22 09:21:42;;;;;;;20.73;6.55;;;26.70;99.90;;;;;;5041950;28;20033;-68
2023/06/22 09:24:08;;;;;;;32.40;8.10;;;26.60;99.90;;;;;;5060542;28;20036;-70
2023/06/22 09:26:34;;;;;;;22.38;8.13;;;26.60;99.90;;;;;;5065051;28;20070;-70
2023/06/22 09:28:59;;;;;;;27.38;7.50;;;26.60;99.90;;;;;;5060269;28;20455;-66
2023/06/22 09:31:25;;;;;;;28.77;7.68;;;26.80;99.90;;;;;;5058253;28;20056;-68
2023/06/22 09:33:54;;;;;;;27.13;7.53;;;26.90;99.90;;;;;;5059438;28;20147;-70
2023/06/22 09:36:20;;;;;;;17.95;7.15;;;27.00;99.90;;;;;;5059722;28;20029;-67
2023/06/22 09:38:48;;;;;;;33.08;7.85;;;26.80;99.90;;;;;;5064244;28;20427;-66
2023/06/22 09:41:13;;;;;;;30.23;7.88;;;26.60;99.90;;;;;;5063239;28;20067;-67
2023/06/22 09:43:39;;;;;;;32.30;8.35;;;26.20;99.90;;;;;;5064347;28;20567;-67
2023/06/22 09:46:05;;;;;;;25.52;7.80;;;25.90;99.90;;;;;;5061143;28;20033;-66
2023/06/22 09:48:31;;;;;;;;;;;25.90;99.90;;;;;;5062739;28;20476;-67
2023/06/22 09:50:56;;;;;;;18.77;7.97;;;26.00;99.90;;;;;;5062858;28;19916;-65
2023/06/22 09:53:22;;;;;;;15.10;7.43;;;26.40;99.90;;;;;;5061951;28;20028;-65
2023/06/22 09:55:47;;;;;;;20.77;7.27;;;28.50;99.90;;;;;;5065143;28;20033;-65
2023/06/22 09:58:13;;;;;;;23.50;7.13;;;28.30;99.90;;;;;;5065421;28;20318;-68
2023/06/22 10:00:40;;;;;;;14.90;7.65;;;27.60;99.90;;;;;;5063582;28;20055;-69
2023/06/22 10:03:06;;;;;;;30.95;7.40;;;27.00;99.90;;;;;;5045051;28;20167;-66
2023/06/22 10:05:32;;;;;;;27.88;7.25;;;26.50;99.90;;;;;;5062106;28;20578;-70
2023/06/22 10:07:57;;;;;;;28.35;7.68;;;26.30;99.90;;;;;;5062960;28;20124;-68
2023/06/22 10:10:23;;;;;;;28.40;7.40;;;26.10;99.90;;;;;;5063641;28;20024;-69
2023/06/22 10:12:56;;;;;;;20.95;7.60;;;25.90;99.90;;;;;;5042316;28;20044;-69
2023/06/22 10:15:22;;;;;;;22.45;7.65;;;26.10;99.90;;;;;;5061957;28;20035;-69
2023/06/22 10:17:47;;;;;;;12.40;6.13;;;26.30;99.90;;;;;;5063163;28;20036;-69
2023/06/22 10:20:14;;;;;;;25.27;9.52;;;26.40;99.90;;;;;;5061676;28;20037;-67
2023/06/22 10:22:43;;;;;;;23.45;7.65;;;26.50;99.90;;;;;;5061064;28;20044;-67
2023/06/22 10:25:11;;;;;;;22.33;7.13;;;26.30;99.90;;;;;;5057045;28;20109;-67
2023/06/22 10:27:39;;;;;;;20.27;7.30;;;26.20;99.90;;;;;;5065060;28;20496;-71
2023/06/22 10:30:09;;;;;;;17.27;6.43;;;26.10;99.90;;;;;;5060388;28;20025;-70
2023/06/22 10:32:34;;;;;;;21.95;7.03;;;26.10;99.90;;;;;;5058647;28;20032;-69
2023/06/22 10:35:00;;;;;;;18.13;6.82;;;26.10;99.90;;;;;;5063273;28;20412;-66
2023/06/22 10:37:26;;;;;;;28.13;7.30;;;26.40;99.90;;;;;;5060539;28;20064;-69
2023/06/22 10:39:51;;;;;;;26.27;6.60;;;26.70;99.90;;;;;;5054571;28;20037;-67
2023/06/22 10:42:17;;;;;;;19.85;7.10;;;26.90;99.90;;;;;;5059704;28;21845;-70
2023/06/22 10:44:44;;;;;;;16.60;6.40;;;27.20;99.70;;;;;;5064592;28;20028;-69
2023/06/22 10:47:11;;;;;;;14.60;6.30;;;27.30;96.50;;;;;;5050177;28;20074;-68
2023/06/22 10:49:38;;;;;;;19.92;6.95;;;27.20;98.10;;;;;;5060328;28;20483;-65
2023/06/22 10:52:08;;;;;;;17.80;7.28;;;27.10;97.80;;;;;;5060150;28;20089;-70
2023/06/22 10:54:35;;;;;;;19.38;6.35;;;27.00;95.40;;;;;;5061942;28;20052;-67
2023/06/22 10:57:01;;;;;;;17.58;6.88;;;26.80;97.00;;;;;;5061967;28;20450;-66
2023/06/22 10:59:28;;;;;;;;;;;26.90;97.30;;;;;;5058602;28;20103;-66
2023/06/22 11:01:55;;;;;;;21.92;7.35;;;27.10;95.90;;;;;;5061171;28;19963;-68
2023/06/22 11:04:21;;;;;;;31.90;7.70;;;27.20;95.80;;;;;;5057981;28;20497;-66
2023/06/22 11:06:47;;;;;;;23.67;5.90;;;27.30;94.60;;;;;;5055022;28;20110;-67
2023/06/22 11:09:18;;;;;;;22.05;7.22;;;27.50;95.50;;;;;;5060825;28;20025;-66
2023/06/22 11:11:44;;;;;;;29.73;8.00;;;27.50;95.40;;;;;;5061918;28;20044;-67
2023/06/22 11:14:09;;;;;;;23.35;7.40;;;27.30;96.30;;;;;;5067293;28;20027;-68
2023/06/22 11:16:35;;;;;;;26.27;7.80;;;27.20;96.50;;;;;;5060362;28;20036;-65
2023/06/22 11:19:00;;;;;;;28.48;7.30;;;27.20;96.20;;;;;;5058640;28;20131;-66
2023/06/22 11:21:26;;;;;;;20.63;6.85;;;27.30;96.50;;;;;;5057975;28;20353;-65
2023/06/22 11:23:52;;;;;;;21.30;7.63;;;27.30;96.60;;;;;;5062989;28;20033;-67
2023/06/22 11:26:17;;;;;;;19.45;7.15;;;27.40;94.70;;;;;;5062143;28;20406;-67
2023/06/22 11:28:43;;;;;;;23.67;7.68;;;27.50;94.80;;;;;;5060377;28;20033;-69
2023/06/22 11:31:09;;;;;;;22.92;7.60;;;27.70;94.40;;;;;;5044489;28;20039;-70
2023/06/22 11:33:35;;;;;;;26.98;8.23;;;28.00;94.10;;;;;;5065383;28;20086;-70
2023/06/22 11:36:00;;;;;;;17.45;7.55;;;27.90;94.60;;;;;;5057936;28;20752;-70
2023/06/22 11:38:26;;;;;;;25.00;9.35;;;27.60;94.40;;;;;;5061466;28;20044;-71
2023/06/22 11:40:52;;;;;;;25.90;7.80;;;27.50;95.60;;;;;;5056892;28;20036;-71
2023/06/22 11:43:17;;;;;;;21.83;8.93;;;27.40;95.30;;;;;;5060715;28;20043;-71
2023/06/22 11:45:43;;;;;;;32.55;9.48;;;27.20;95.70;;;;;;5060366;28;20500;-70
2023/06/22 11:48:08;;;;;;;28.85;8.40;;;27.40;96.80;;;;;;5058462;28;20033;-69
2023/06/22 11:50:35;;;;;;;18.52;8.23;;;27.60;96.30;;;;;;5054947;28;20626;-71
2023/06/22 11:53:04;;;;;;;28.83;9.73;;;27.40;97.00;;;;;;5058351;28;20037;-70
2023/06/22 11:55:29;;;;;;;16.63;7.15;;;27.00;94.80;;;;;;5058288;28;20032;-70
2023/06/22 11:57:58;;;;;;;26.58;8.50;;;27.00;93.50;;;;;;5062226;28;20040;-70
2023/06/22 12:00:24;;;;;;;16.45;6.78;;;27.10;93.40;;;;;;5041188;28;20586;-69
2023/06/22 12:02:52;;;;;;;22.55;6.90;;;26.90;90.50;;;;;;5061067;28;20123;-68
2023/06/22 12:05:20;;;;;;;19.05;6.03;;;26.90;90.90;;;;;;5060176;28;20033;-67
2023/06/22 12:07:46;;;;;;;11.68;4.28;;;26.80;86.00;;;;;;5057252;28;20435;-68
2023/06/22 12:10:12;;;;;;;10.38;5.60;;;26.70;83.30;;;;;;5061087;28;20029;-68
2023/06/22 12:12:38;;;;;;;14.00;4.57;;;26.50;82.20;;;;;;5059410;28;21543;-69
2023/06/22 12:15:04;;;;;;;20.35;4.55;;;26.40;81.10;;;;;;5059857;28;20032;-69
2023/06/22 12:17:30;;;;;;;8.70;3.85;;;26.30;81.20;;;;;;5061883;28;20354;-68
2023/06/22 12:19:56;;;;;;;10.02;3.78;;;26.30;84.50;;;;;;5063046;28;20106;-69
2023/06/22 12:22:21;;;;;;;9.68;3.97;;;26.20;81.50;;;;;;5057342;28;20032;-68
2023/06/22 12:24:47;;;;;;;8.65;4.20;;;26.10;80.60;;;;;;5057623;28;20036;-68
2023/06/22 12:27:16;;;;;;;23.42;4.35;;;26.30;80.30;;;;;;5060709;28;20032;-67
2023/06/22 12:29:41;;;;;;;8.80;3.65;;;26.40;79.10;;;;;;5057412;28;20032;-67
2023/06/22 12:32:07;;;;;;;13.23;3.45;;;26.50;78.00;;;;;;5060858;28;20040;-67
2023/06/22 12:34:33;;;;;;;8.52;3.45;;;26.50;76.70;;;;;;5057181;28;20026;-68